createdAt,value
2023-01-13T00:02:25.058Z,13.13
2023-01-13T00:05:28.500Z,12.52
2023-01-13T00:08:31.376Z,12.52
2023-01-13T00:11:34.676Z,12.15
2023-01-13T00:14:37.419Z,12.40
2023-01-13T00:17:40.306Z,12.95
2023-01-13T00:20:44.560Z,12.27
2023-01-13T00:23:48.121Z,13.00
2023-01-13T00:26:50.690Z,11.10
2023-01-13T00:29:53.779Z,10.53
2023-01-13T00:32:56.396Z,10.88
2023-01-13T00:36:00.236Z,11.90
2023-01-13T00:39:03.354Z,11.48
2023-01-13T00:42:24.980Z,12.70
2023-01-13T00:45:27.749Z,11.57
2023-01-13T00:48:31.222Z,12.32
2023-01-13T00:51:34.078Z,12.63
2023-01-13T00:54:36.971Z,12.40
2023-01-13T00:57:40.098Z,12.70
2023-01-13T01:00:43.186Z,11.83
2023-01-13T01:03:52.622Z,11.15
2023-01-13T01:06:55.761Z,11.68
2023-01-13T01:09:58.242Z,12.63
2023-01-13T01:13:01.249Z,10.63
2023-01-13T01:16:16.760Z,10.57
2023-01-13T01:19:20.641Z,11.25
2023-01-13T01:22:23.395Z,10.95
2023-01-13T01:25:26.193Z,11.23
2023-01-13T01:28:29.806Z,11.88
2023-01-13T01:31:34.981Z,11.77
2023-01-13T01:34:39.214Z,11.65
2023-01-13T01:37:42.693Z,11.35
2023-01-13T01:40:45.395Z,10.93
2023-01-13T01:43:59.760Z,13.15
2023-01-13T01:47:03.033Z,11.90
2023-01-13T01:50:06.902Z,13.90
2023-01-13T01:53:14.501Z,14.07
2023-01-13T01:56:18.047Z,12.05
2023-01-13T01:59:22.313Z,11.65
2023-01-13T02:02:25.420Z,9.67
2023-01-13T02:05:28.411Z,10.93
2023-01-13T02:08:31.690Z,12.48
2023-01-13T02:11:54.965Z,10.40
2023-01-13T02:15:01.550Z,10.73
2023-01-13T02:18:30.860Z,13.33
2023-01-13T02:21:42.668Z,12.18
2023-01-13T02:25:15.217Z,10.30
2023-01-13T02:29:06.484Z,10.65
2023-01-13T02:32:23.118Z,10.90
2023-01-13T02:35:28.934Z,10.03
2023-01-13T02:38:40.790Z,10.35
2023-01-13T02:42:33.467Z,10.18
2023-01-13T02:45:50.538Z,10.35
2023-01-13T02:48:54.863Z,9.95
2023-01-13T02:52:03.035Z,9.43
2023-01-13T02:55:09.288Z,11.00
2023-01-13T02:58:15.925Z,10.27
2023-01-13T03:01:19.669Z,9.98
2023-01-13T03:04:50.127Z,10.13
2023-01-13T03:08:12.348Z,9.53
2023-01-13T03:11:17.749Z,10.43
2023-01-13T03:14:36.502Z,9.38
2023-01-13T03:17:43.055Z,9.70
2023-01-13T03:21:11.236Z,9.80
2023-01-13T03:24:18.090Z,9.80
2023-01-13T03:27:37.855Z,8.73
2023-01-13T03:30:50.708Z,9.30
2023-01-13T03:34:07.996Z,8.93
2023-01-13T03:37:11.542Z,9.18
2023-01-13T03:40:20.976Z,9.70
2023-01-13T03:43:51.007Z,8.75
2023-01-13T03:47:02.071Z,9.07
2023-01-13T03:50:14.709Z,8.75
2023-01-13T03:53:31.570Z,8.57
2023-01-13T03:56:35.153Z,8.60
2023-01-13T03:59:42.193Z,7.65
2023-01-13T04:03:14.756Z,8.80
2023-01-13T04:06:20.774Z,8.77
2023-01-13T04:09:29.840Z,8.77
2023-01-13T04:12:55.413Z,8.37
2023-01-13T04:16:00.193Z,9.00
2023-01-13T04:19:10.971Z,8.35
2023-01-13T04:22:13.560Z,8.23
2023-01-13T04:25:16.624Z,8.50
2023-01-13T04:28:19.864Z,8.93
2023-01-13T04:31:23.344Z,7.82
2023-01-13T04:34:28.271Z,9.48
2023-01-13T04:37:31.779Z,8.80
2023-01-13T04:40:34.423Z,8.30
2023-01-13T04:43:37.911Z,8.17
2023-01-13T04:46:40.554Z,8.40
2023-01-13T04:49:43.771Z,8.55
2023-01-13T04:52:47.588Z,8.27
2023-01-13T04:55:50.646Z,8.13
2023-01-13T04:58:53.364Z,9.57
2023-01-13T05:01:56.293Z,8.27
2023-01-13T05:04:59.315Z,8.05
2023-01-13T05:08:02.203Z,7.68
2023-01-13T05:11:25.178Z,9.40
2023-01-13T05:14:47.069Z,9.30
2023-01-13T05:17:50.417Z,9.18
2023-01-13T05:20:53.631Z,9.50
2023-01-13T05:24:14.879Z,10.45
2023-01-13T05:27:18.233Z,10.57
2023-01-13T05:30:22.739Z,8.20
2023-01-13T05:33:25.570Z,8.23
2023-01-13T05:36:28.754Z,8.35
2023-01-13T05:39:51.818Z,10.90
2023-01-13T05:43:20.954Z,9.23
2023-01-13T05:46:24.177Z,10.47
2023-01-13T05:49:27.195Z,10.68
2023-01-13T05:52:30.303Z,10.60
2023-01-13T05:55:33.085Z,8.75
2023-01-13T05:58:37.077Z,12.07
2023-01-13T06:01:39.988Z,11.10
2023-01-13T06:04:43.090Z,11.07
2023-01-13T06:07:45.918Z,11.43
2023-01-13T06:10:50.166Z,10.85
2023-01-13T06:13:53.010Z,10.93
2023-01-13T06:16:55.993Z,12.20
2023-01-13T06:20:00.579Z,10.57
2023-01-13T06:23:04.079Z,12.45
2023-01-13T06:26:14.842Z,10.15
2023-01-13T06:29:18.054Z,11.77
2023-01-13T06:32:32.921Z,11.67
2023-01-13T06:35:37.441Z,10.18
2023-01-13T06:38:43.067Z,9.68
2023-01-13T06:42:07.733Z,10.13
2023-01-13T06:45:11.068Z,10.63
2023-01-13T06:48:15.465Z,10.27
2023-01-13T06:51:18.446Z,9.43
2023-01-13T06:54:22.109Z,10.40
2023-01-13T06:57:25.115Z,9.90
2023-01-13T07:00:29.183Z,9.93
2023-01-13T07:03:31.936Z,9.57
2023-01-13T07:06:35.425Z,11.20
2023-01-13T07:09:38.394Z,10.02
2023-01-13T07:13:00.502Z,9.93
2023-01-13T07:16:05.837Z,9.88
2023-01-13T07:19:09.388Z,9.23
2023-01-13T07:22:13.775Z,10.07
2023-01-13T07:25:16.918Z,10.88
2023-01-13T07:28:19.629Z,10.27
2023-01-13T07:31:22.695Z,10.95
2023-01-13T07:34:25.690Z,10.67
2023-01-13T07:37:29.101Z,10.48
2023-01-13T07:40:32.213Z,12.02
2023-01-13T07:43:35.372Z,10.90
2023-01-13T07:46:39.523Z,11.52
2023-01-13T07:49:42.661Z,11.37
2023-01-13T07:52:45.543Z,11.12
2023-01-13T07:55:49.770Z,11.73
2023-01-13T07:58:53.422Z,10.50
2023-01-13T08:01:57.243Z,11.48
2023-01-13T08:05:00.352Z,11.73
2023-01-13T08:08:03.531Z,11.27
2023-01-13T08:11:08.039Z,11.18
2023-01-13T08:14:10.965Z,11.38
2023-01-13T08:17:14.082Z,12.18
2023-01-13T08:20:17.179Z,10.83
2023-01-13T08:23:24.456Z,10.38
2023-01-13T08:26:27.790Z,11.80
2023-01-13T08:29:30.832Z,11.30
2023-01-13T08:32:33.592Z,11.10
2023-01-13T08:35:38.267Z,11.37
2023-01-13T08:38:41.678Z,11.30
2023-01-13T08:41:56.753Z,12.02
2023-01-13T08:44:59.858Z,11.12
2023-01-13T08:48:03.860Z,11.40
2023-01-13T08:51:09.084Z,11.43
2023-01-13T08:54:12.857Z,10.55
2023-01-13T08:57:15.625Z,10.88
2023-01-13T09:00:18.989Z,10.10
2023-01-13T09:03:21.916Z,11.75
2023-01-13T09:06:24.917Z,10.70
2023-01-13T09:09:28.031Z,12.45
2023-01-13T09:12:50.276Z,12.15
2023-01-13T09:15:56.694Z,11.88
2023-01-13T09:18:59.799Z,10.65
2023-01-13T09:22:02.919Z,10.27
2023-01-13T09:25:06.529Z,10.75
2023-01-13T09:28:09.306Z,10.80
2023-01-13T09:31:12.863Z,9.88
2023-01-13T09:34:36.426Z,10.85
2023-01-13T09:37:40.847Z,10.47
2023-01-13T09:40:48.044Z,11.77
2023-01-13T09:43:56.775Z,12.43
2023-01-13T09:47:04.314Z,11.57
2023-01-13T09:50:10.557Z,11.63
2023-01-13T09:53:19.994Z,11.87
2023-01-13T09:56:23.717Z,10.75
2023-01-13T09:59:36.478Z,10.70
2023-01-13T10:02:58.573Z,9.75
2023-01-13T10:06:21.807Z,10.00
2023-01-13T10:09:32.829Z,8.83
2023-01-13T10:12:54.510Z,10.30
2023-01-13T10:16:08.622Z,10.50
2023-01-13T10:19:18.928Z,9.70
2023-01-13T10:22:36.548Z,9.70
2023-01-13T10:25:55.164Z,9.50
2023-01-13T10:28:57.978Z,8.60
2023-01-13T10:32:01.122Z,10.07
2023-01-13T10:35:03.932Z,9.43
2023-01-13T10:38:25.039Z,9.98
2023-01-13T10:41:28.049Z,9.83
2023-01-13T10:44:31.568Z,9.40
2023-01-13T10:47:36.578Z,8.35
2023-01-13T10:50:40.890Z,9.05
2023-01-13T10:54:13.253Z,9.55
2023-01-13T10:57:20.916Z,10.30
2023-01-13T11:00:27.724Z,10.57
2023-01-13T11:03:42.968Z,10.88
2023-01-13T11:06:47.363Z,9.90
2023-01-13T11:10:38.812Z,9.75
2023-01-13T11:14:02.423Z,9.37
2023-01-13T11:17:29.975Z,9.20
2023-01-13T11:20:33.822Z,9.27
2023-01-13T11:23:42.834Z,10.02
2023-01-13T11:26:51.344Z,10.07
2023-01-13T11:30:30.416Z,10.30
2023-01-13T11:33:43.219Z,10.75
2023-01-13T11:36:52.074Z,9.60
2023-01-13T11:40:06.094Z,9.23
2023-01-13T11:43:19.218Z,9.68
2023-01-13T11:46:28.671Z,9.60
2023-01-13T11:49:33.226Z,9.77
2023-01-13T11:52:53.364Z,9.20
2023-01-13T11:56:50.916Z,9.60
2023-01-13T11:59:59.065Z,10.00
2023-01-13T12:03:17.514Z,8.57
2023-01-13T12:06:39.259Z,9.30
2023-01-13T12:09:48.968Z,10.73
2023-01-13T12:13:25.616Z,10.20
2023-01-13T12:16:32.498Z,9.88
2023-01-13T12:19:36.137Z,10.20
2023-01-13T12:22:39.947Z,10.98
2023-01-13T12:25:45.907Z,10.82
2023-01-13T12:29:13.838Z,11.98
2023-01-13T12:32:24.523Z,11.02
2023-01-13T12:35:42.418Z,11.70
2023-01-13T12:38:50.528Z,10.70
2023-01-13T12:42:12.826Z,10.93
2023-01-13T12:45:18.403Z,11.18
2023-01-13T12:48:46.462Z,10.20
2023-01-13T12:51:52.432Z,11.30
2023-01-13T12:54:55.791Z,11.20
2023-01-13T12:58:04.961Z,10.90
2023-01-13T13:01:15.618Z,9.88
2023-01-13T13:04:43.730Z,11.82
2023-01-13T13:07:49.926Z,10.90
2023-01-13T13:11:07.163Z,9.90
2023-01-13T13:14:13.853Z,11.05
2023-01-13T13:17:19.922Z,10.98
2023-01-13T13:20:54.445Z,12.27
2023-01-13T13:23:57.488Z,10.37
2023-01-13T13:27:19.943Z,10.27
2023-01-13T13:30:22.924Z,13.40
2023-01-13T13:33:35.473Z,12.27
2023-01-13T13:36:41.799Z,11.80
2023-01-13T13:40:04.069Z,11.07
2023-01-13T13:43:31.105Z,11.18
2023-01-13T13:46:48.060Z,11.07
2023-01-13T13:49:54.556Z,10.93
2023-01-13T13:53:05.927Z,11.50
2023-01-13T13:56:19.025Z,11.80
2023-01-13T13:59:24.858Z,10.68
2023-01-13T14:02:35.181Z,11.35
2023-01-13T14:05:38.236Z,11.90
2023-01-13T14:08:46.698Z,14.02
2023-01-13T14:12:00.167Z,14.57
2023-01-13T14:15:03.255Z,11.73
2023-01-13T14:18:13.943Z,11.05
2023-01-13T14:21:26.824Z,10.43
2023-01-13T14:24:30.904Z,11.27
2023-01-13T14:27:35.327Z,10.90
2023-01-13T14:30:40.267Z,11.85
2023-01-13T14:33:52.018Z,12.20
2023-01-13T14:36:55.018Z,9.93
2023-01-13T14:39:57.987Z,9.95
2023-01-13T14:43:01.931Z,10.80
2023-01-13T14:46:04.996Z,11.95
2023-01-13T14:49:39.713Z,10.55
2023-01-13T14:52:51.059Z,11.32
2023-01-13T14:55:54.237Z,11.60
2023-01-13T14:58:56.867Z,12.83
2023-01-13T15:02:01.710Z,12.57
2023-01-13T15:05:19.795Z,11.80
2023-01-13T15:08:33.979Z,10.38
2023-01-13T15:11:41.010Z,11.88
2023-01-13T15:14:44.301Z,11.97
2023-01-13T15:17:47.395Z,12.57
2023-01-13T15:20:53.834Z,12.43
2023-01-13T15:23:56.547Z,12.70
2023-01-13T15:26:59.476Z,12.02
2023-01-13T15:30:20.116Z,11.77
2023-01-13T15:33:23.195Z,11.68
2023-01-13T15:36:33.775Z,10.95
2023-01-13T15:39:37.031Z,11.23
2023-01-13T15:42:58.767Z,12.05
2023-01-13T15:46:21.838Z,12.23
2023-01-13T15:49:42.782Z,14.73
2023-01-13T15:52:45.675Z,13.77
2023-01-13T15:55:51.441Z,10.60
2023-01-13T15:58:55.206Z,11.05
2023-01-13T16:01:58.150Z,11.87
2023-01-13T16:05:01.325Z,10.60
2023-01-13T16:08:04.877Z,12.10
2023-01-13T16:11:09.517Z,12.18
2023-01-13T16:14:12.220Z,11.38
2023-01-13T16:17:20.066Z,12.97
2023-01-13T16:20:24.994Z,11.12
2023-01-13T16:23:28.252Z,10.65
2023-01-13T16:26:32.785Z,10.57
2023-01-13T16:29:35.873Z,11.05
2023-01-13T16:32:38.569Z,11.63
2023-01-13T16:36:09.429Z,11.65
2023-01-13T16:39:06.140Z,10.95
2023-01-13T16:42:09.287Z,11.05
2023-01-13T16:45:12.609Z,10.90
2023-01-13T16:48:20.183Z,12.13
2023-01-13T16:51:23.860Z,11.35
2023-01-13T16:54:26.786Z,10.82
2023-01-13T16:57:29.741Z,14.18
2023-01-13T17:00:33.064Z,14.35
2023-01-13T17:03:36.019Z,12.90
2023-01-13T17:07:02.066Z,12.27
2023-01-13T17:10:05.504Z,11.63
2023-01-13T17:13:16.471Z,11.30
2023-01-13T17:16:22.203Z,10.20
2023-01-13T17:19:25.892Z,10.77
2023-01-13T17:22:30.825Z,10.85
2023-01-13T17:25:34.230Z,10.88
2023-01-13T17:28:36.981Z,10.40
2023-01-13T17:31:40.141Z,9.93
2023-01-13T17:34:43.846Z,9.53
2023-01-13T17:37:47.067Z,10.52
2023-01-13T17:40:50.682Z,11.15
2023-01-13T17:43:54.259Z,11.88
2023-01-13T17:46:57.021Z,13.48
2023-01-13T17:50:04.261Z,12.47
2023-01-13T17:53:07.865Z,13.93
2023-01-13T17:56:14.208Z,13.65
2023-01-13T17:59:21.043Z,13.75
2023-01-13T18:02:24.873Z,13.88
2023-01-13T18:05:28.086Z,12.70
2023-01-13T18:08:30.870Z,13.68
2023-01-13T18:11:34.212Z,15.23
2023-01-13T18:14:37.053Z,14.45
2023-01-13T18:17:40.162Z,13.48
2023-01-13T18:21:03.644Z,14.13
2023-01-13T18:24:30.598Z,13.23
2023-01-13T18:27:35.658Z,15.07
2023-01-13T18:30:40.619Z,12.82
2023-01-13T18:33:43.631Z,14.85
2023-01-13T18:36:46.838Z,13.40
2023-01-13T18:39:49.742Z,14.93
2023-01-13T18:42:55.138Z,14.57
2023-01-13T18:45:57.991Z,14.45
2023-01-13T18:49:01.082Z,15.70
2023-01-13T18:52:04.385Z,15.00
2023-01-13T18:55:07.899Z,14.95
2023-01-13T18:58:10.861Z,14.98
2023-01-13T19:01:16.919Z,15.00
2023-01-13T19:04:20.095Z,14.85
2023-01-13T19:07:26.945Z,16.43
2023-01-13T19:10:32.641Z,15.48
2023-01-13T19:13:36.502Z,14.77
2023-01-13T19:16:39.359Z,16.02
2023-01-13T19:19:44.882Z,16.23
2023-01-13T19:22:54.041Z,16.00
2023-01-13T19:26:01.517Z,15.35
2023-01-13T19:29:04.353Z,15.15
2023-01-13T19:32:08.097Z,16.30
2023-01-13T19:35:16.032Z,17.42
2023-01-13T19:38:19.741Z,17.73
2023-01-13T19:41:45.581Z,16.25
2023-01-13T19:45:07.531Z,15.93
2023-01-13T19:48:11.089Z,17.00
2023-01-13T19:51:14.787Z,16.65
2023-01-13T19:54:17.674Z,16.73
2023-01-13T19:57:20.896Z,17.27
2023-01-13T20:00:24.201Z,16.98
2023-01-13T20:03:31.192Z,18.08
2023-01-13T20:06:34.284Z,18.98
2023-01-13T20:09:37.685Z,21.13
2023-01-13T20:12:41.735Z,17.08
2023-01-13T20:15:45.347Z,19.25
2023-01-13T20:18:51.766Z,16.77
2023-01-13T20:21:55.087Z,18.92
2023-01-13T20:24:58.553Z,17.73
2023-01-13T20:28:02.292Z,18.40
2023-01-13T20:31:09.763Z,17.30
2023-01-13T20:34:14.646Z,18.33
2023-01-13T20:37:17.583Z,19.67
2023-01-13T20:40:20.928Z,18.87
2023-01-13T20:43:23.988Z,18.77
2023-01-13T20:46:27.761Z,19.10
2023-01-13T20:49:30.997Z,20.12
2023-01-13T20:52:34.174Z,19.40
2023-01-13T20:55:39.918Z,21.67
2023-01-13T20:58:44.225Z,19.08
2023-01-13T21:01:47.249Z,17.85
2023-01-13T21:04:50.511Z,17.02
2023-01-13T21:07:53.321Z,18.00
2023-01-13T21:11:05.337Z,16.10
2023-01-13T21:14:42.356Z,15.85
2023-01-13T21:18:05.012Z,18.12
2023-01-13T21:21:14.193Z,16.20
2023-01-13T21:24:17.512Z,17.20
2023-01-13T21:27:20.643Z,15.33
2023-01-13T21:30:24.826Z,17.30
2023-01-13T21:33:27.743Z,17.95
2023-01-13T21:36:31.010Z,16.17
2023-01-13T21:39:33.711Z,17.25
2023-01-13T21:42:55.472Z,17.37
2023-01-13T21:46:16.788Z,15.82
2023-01-13T21:49:19.907Z,15.30
2023-01-13T21:52:25.622Z,15.52
2023-01-13T21:55:29.832Z,15.35
2023-01-13T21:58:32.677Z,15.70
2023-01-13T22:02:00.210Z,16.00
2023-01-13T22:05:04.068Z,16.50
2023-01-13T22:08:08.112Z,16.67
2023-01-13T22:11:12.857Z,15.50
2023-01-13T22:14:16.221Z,17.50
2023-01-13T22:17:20.918Z,17.67
2023-01-13T22:20:24.119Z,16.98
2023-01-13T22:23:29.296Z,17.62
2023-01-13T22:26:32.126Z,15.70
2023-01-13T22:29:37.616Z,16.13
2023-01-13T22:32:40.656Z,14.98
2023-01-13T22:35:44.116Z,14.77
2023-01-13T22:38:47.176Z,16.25
2023-01-13T22:41:53.472Z,14.20
2023-01-13T22:44:56.489Z,15.90
2023-01-13T22:47:59.660Z,17.90
2023-01-13T22:51:10.973Z,18.27
2023-01-13T22:54:14.529Z,17.02
2023-01-13T22:57:21.883Z,17.45
2023-01-13T23:00:27.092Z,16.53
2023-01-13T23:03:29.970Z,16.90
2023-01-13T23:06:33.961Z,16.15
2023-01-13T23:09:36.667Z,16.50
2023-01-13T23:12:39.887Z,15.68
2023-01-13T23:15:42.831Z,22.70
2023-01-13T23:18:48.125Z,24.67
2023-01-13T23:21:50.905Z,19.73
2023-01-13T23:24:54.092Z,18.00
2023-01-13T23:27:56.816Z,18.02
2023-01-13T23:31:00.386Z,17.43
2023-01-13T23:34:03.315Z,17.37
2023-01-13T23:37:06.621Z,14.73
2023-01-13T23:40:10.339Z,18.67
2023-01-13T23:43:15.007Z,14.82
2023-01-13T23:46:17.783Z,16.13
2023-01-13T23:49:20.952Z,15.90
2023-01-13T23:52:24.078Z,16.23
2023-01-13T23:55:27.574Z,14.25
2023-01-13T23:58:30.855Z,14.80
